createdAt,value
2022-12-17T00:00:40.487Z,0.65
2022-12-17T00:03:29.272Z,0.45
2022-12-17T00:06:14.604Z,0.48
2022-12-17T00:09:00.030Z,0.38
2022-12-17T00:11:45.379Z,0.40
2022-12-17T00:14:30.787Z,0.39
2022-12-17T00:17:16.032Z,0.29
2022-12-17T00:20:01.345Z,0.35
2022-12-17T00:22:46.794Z,0.42
2022-12-17T00:25:32.092Z,0.43
2022-12-17T00:28:17.390Z,0.41
2022-12-17T00:31:02.711Z,0.30
2022-12-17T00:33:47.903Z,0.32
2022-12-17T00:36:33.289Z,0.35
2022-12-17T00:39:18.818Z,0.28
2022-12-17T00:42:04.298Z,0.32
2022-12-17T00:44:49.557Z,0.19
2022-12-17T00:47:35.161Z,0.28
2022-12-17T00:50:20.662Z,0.27
2022-12-17T00:53:06.552Z,0.19
2022-12-17T00:55:51.996Z,0.24
2022-12-17T00:58:37.026Z,0.27
2022-12-17T01:01:22.685Z,0.18
2022-12-17T01:04:07.958Z,0.17
2022-12-17T01:06:53.963Z,0.25
2022-12-17T01:09:39.492Z,0.29
2022-12-17T01:12:24.941Z,0.27
2022-12-17T01:15:10.276Z,0.27
2022-12-17T01:17:56.311Z,0.12
2022-12-17T01:20:42.157Z,0.13
2022-12-17T01:23:27.740Z,0.10
2022-12-17T01:26:15.741Z,0.03
2022-12-17T01:29:01.294Z,0.08
2022-12-17T01:31:47.422Z,0.04
2022-12-17T01:34:32.631Z,-0.02
2022-12-17T01:37:17.997Z,-0.07
2022-12-17T01:40:03.463Z,-0.13
2022-12-17T01:43:01.560Z,-0.10
2022-12-17T01:46:02.346Z,-0.26
2022-12-17T01:48:59.543Z,-0.24
2022-12-17T01:51:46.555Z,-0.35
2022-12-17T01:54:32.576Z,-0.30
2022-12-17T01:57:19.167Z,-0.36
2022-12-17T02:00:25.608Z,-0.42
2022-12-17T02:03:11.119Z,-0.43
2022-12-17T02:06:41.957Z,-0.50
2022-12-17T02:09:49.874Z,-0.40
2022-12-17T02:12:54.956Z,-0.42
2022-12-17T02:15:58.641Z,-0.51
2022-12-17T02:18:54.977Z,-0.42
2022-12-17T02:21:41.641Z,-0.35
2022-12-17T02:24:49.568Z,-0.42
2022-12-17T02:27:36.014Z,-0.45
2022-12-17T02:30:25.789Z,-0.42
2022-12-17T02:33:12.069Z,-0.38
2022-12-17T02:36:07.165Z,-0.33
2022-12-17T02:38:52.825Z,-0.43
2022-12-17T02:41:47.713Z,-0.33
2022-12-17T02:44:36.349Z,-0.29
2022-12-17T02:47:25.480Z,-0.35
2022-12-17T02:50:10.900Z,-0.48
2022-12-17T02:53:04.422Z,-0.41
2022-12-17T02:55:50.161Z,-0.26
2022-12-17T02:58:35.703Z,-0.21
2022-12-17T03:01:21.320Z,-0.30
2022-12-17T03:04:06.553Z,-0.36
2022-12-17T03:06:52.097Z,-0.63
2022-12-17T03:09:37.565Z,-0.54
2022-12-17T03:12:23.198Z,-0.46
2022-12-17T03:15:08.584Z,-0.37
2022-12-17T03:17:53.975Z,-0.32
2022-12-17T03:20:39.441Z,-0.38
2022-12-17T03:23:27.809Z,-0.54
2022-12-17T03:26:17.286Z,-0.46
2022-12-17T03:29:02.922Z,-0.48
2022-12-17T03:31:48.297Z,-0.52
2022-12-17T03:34:33.825Z,-0.56
2022-12-17T03:37:19.416Z,-0.49
2022-12-17T03:40:04.848Z,-0.48
2022-12-17T03:42:50.328Z,-0.51
2022-12-17T03:45:35.852Z,-0.62
2022-12-17T03:48:31.666Z,-0.70
2022-12-17T03:51:17.648Z,-0.81
2022-12-17T03:54:03.670Z,-0.71
2022-12-17T03:56:49.844Z,-0.67
2022-12-17T03:59:35.138Z,-0.69
2022-12-17T04:02:20.844Z,-0.70
2022-12-17T04:05:06.526Z,-0.84
2022-12-17T04:08:11.735Z,-0.82
2022-12-17T04:10:57.079Z,-0.71
2022-12-17T04:13:42.951Z,-0.62
2022-12-17T04:16:31.363Z,-0.58
2022-12-17T04:19:17.182Z,-0.57
2022-12-17T04:22:02.209Z,-0.57
2022-12-17T04:24:47.817Z,-0.67
2022-12-17T04:27:33.096Z,-0.66
2022-12-17T04:30:18.490Z,-0.72
2022-12-17T04:33:04.090Z,-0.63
2022-12-17T04:35:49.525Z,-0.59
2022-12-17T04:38:35.209Z,-0.62
2022-12-17T04:41:20.488Z,-0.66
2022-12-17T04:44:05.877Z,-0.62
2022-12-17T04:46:51.257Z,-0.54
2022-12-17T04:49:36.666Z,-0.70
2022-12-17T04:52:22.626Z,-0.77
2022-12-17T04:55:08.133Z,-0.71
2022-12-17T04:58:13.386Z,-0.90
2022-12-17T05:00:58.775Z,-0.90
2022-12-17T05:03:44.170Z,-0.83
2022-12-17T05:06:29.667Z,-0.88
2022-12-17T05:09:15.300Z,-0.89
2022-12-17T05:12:00.835Z,-0.96
2022-12-17T05:14:46.469Z,-0.90
2022-12-17T05:17:31.909Z,-0.87
2022-12-17T05:20:17.305Z,-0.81
2022-12-17T05:23:02.737Z,-0.74
2022-12-17T05:25:48.310Z,-0.84
2022-12-17T05:28:34.016Z,-0.93
2022-12-17T05:31:19.784Z,-0.85
2022-12-17T05:34:05.219Z,-0.84
2022-12-17T05:36:50.773Z,-0.75
2022-12-17T05:39:36.121Z,-0.74
2022-12-17T05:42:21.590Z,-0.78
2022-12-17T05:45:07.089Z,-1.10
2022-12-17T05:47:52.582Z,-0.95
2022-12-17T05:50:38.111Z,-1.16
2022-12-17T05:53:25.006Z,-1.12
2022-12-17T05:56:12.105Z,-0.97
2022-12-17T05:58:58.304Z,-1.22
2022-12-17T06:01:43.954Z,-1.18
2022-12-17T06:04:30.041Z,-1.27
2022-12-17T06:07:15.374Z,-1.27
2022-12-17T06:10:00.809Z,-1.29
2022-12-17T06:12:46.280Z,-1.67
2022-12-17T06:15:31.689Z,-1.60
2022-12-17T06:18:17.589Z,-1.35
2022-12-17T06:21:03.629Z,-1.50
2022-12-17T06:23:48.991Z,-1.44
2022-12-17T06:26:34.682Z,-1.43
2022-12-17T06:29:20.105Z,-1.74
2022-12-17T06:32:05.361Z,-1.87
2022-12-17T06:34:50.478Z,-1.69
2022-12-17T06:37:35.888Z,-1.79
2022-12-17T06:40:21.485Z,-1.86
2022-12-17T06:43:16.258Z,-1.75
2022-12-17T06:46:01.514Z,-1.98
2022-12-17T06:48:46.895Z,-1.90
2022-12-17T06:51:32.372Z,-1.95
2022-12-17T06:54:17.697Z,-1.82
2022-12-17T06:57:03.170Z,-1.73
2022-12-17T06:59:48.576Z,-1.72
2022-12-17T07:02:34.093Z,-1.70
2022-12-17T07:05:19.486Z,-1.64
2022-12-17T07:08:04.962Z,-1.58
2022-12-17T07:10:50.505Z,-1.76
2022-12-17T07:13:36.383Z,-1.76
2022-12-17T07:16:22.045Z,-1.70
2022-12-17T07:19:07.310Z,-1.67
2022-12-17T07:21:52.634Z,-1.75
2022-12-17T07:24:38.063Z,-1.66
2022-12-17T07:27:23.393Z,-1.42
2022-12-17T07:30:08.907Z,-1.48
2022-12-17T07:32:54.328Z,-1.40
2022-12-17T07:35:39.873Z,-1.26
2022-12-17T07:38:25.795Z,-1.09
2022-12-17T07:41:11.157Z,-1.13
2022-12-17T07:43:56.701Z,-1.22
2022-12-17T07:46:42.032Z,-1.49
2022-12-17T07:49:27.527Z,-1.35
2022-12-17T07:52:12.929Z,-1.63
2022-12-17T07:54:58.435Z,-1.59
2022-12-17T07:57:44.537Z,-1.72
2022-12-17T08:00:31.149Z,-1.73
2022-12-17T08:03:18.626Z,-1.88
2022-12-17T08:06:04.482Z,-1.61
2022-12-17T08:08:50.036Z,-1.34
2022-12-17T08:11:35.992Z,-1.10
2022-12-17T08:14:21.169Z,-1.02
2022-12-17T08:17:06.652Z,-0.75
2022-12-17T08:19:51.990Z,-0.76
2022-12-17T08:22:37.421Z,-0.75
2022-12-17T08:25:23.479Z,-0.76
2022-12-17T08:28:49.085Z,-1.03
2022-12-17T08:31:24.126Z,-0.81
2022-12-17T08:34:09.426Z,-0.82
2022-12-17T08:36:54.919Z,-0.76
2022-12-17T08:39:40.088Z,-0.76
2022-12-17T08:42:25.493Z,-0.45
2022-12-17T08:45:10.958Z,-0.37
2022-12-17T08:48:00.566Z,0.47
2022-12-17T08:50:49.184Z,0.87
2022-12-17T08:53:35.129Z,1.00
2022-12-17T08:56:20.597Z,1.36
2022-12-17T08:59:05.840Z,1.59
2022-12-17T09:01:51.242Z,2.00
2022-12-17T09:04:36.794Z,2.92
2022-12-17T09:07:22.229Z,3.37
2022-12-17T09:10:07.592Z,3.58
2022-12-17T09:12:52.888Z,3.71
2022-12-17T09:15:55.174Z,3.43
2022-12-17T09:18:40.828Z,3.66
2022-12-17T09:21:27.157Z,3.97
2022-12-17T09:24:12.742Z,4.35
2022-12-17T09:26:58.038Z,4.60
2022-12-17T09:29:43.085Z,4.58
2022-12-17T09:32:36.078Z,4.64
2022-12-17T09:35:21.620Z,4.90
2022-12-17T09:38:14.767Z,4.56
2022-12-17T09:41:05.871Z,4.49
2022-12-17T09:44:23.882Z,3.97
2022-12-17T09:47:48.139Z,4.44
2022-12-17T09:50:34.849Z,5.19
2022-12-17T09:53:38.419Z,4.63
2022-12-17T09:56:25.228Z,3.80
2022-12-17T09:59:10.375Z,3.69
2022-12-17T10:01:58.762Z,3.06
2022-12-17T10:04:56.667Z,2.36
2022-12-17T10:07:45.453Z,1.75
2022-12-17T10:10:41.769Z,4.08
2022-12-17T10:13:37.637Z,5.78
2022-12-17T10:16:47.935Z,7.31
2022-12-17T10:19:42.501Z,8.37
2022-12-17T10:22:30.972Z,6.84
2022-12-17T10:25:33.387Z,6.13
2022-12-17T10:28:30.149Z,3.77
2022-12-17T10:31:16.572Z,2.93
2022-12-17T10:34:02.477Z,2.31
2022-12-17T10:36:48.214Z,3.70
2022-12-17T10:39:44.376Z,5.05
2022-12-17T10:42:48.595Z,5.94
2022-12-17T10:45:46.463Z,7.24
2022-12-17T10:48:49.891Z,7.22
2022-12-17T10:51:55.535Z,8.25
2022-12-17T10:54:50.390Z,5.49
2022-12-17T10:57:56.384Z,3.87
2022-12-17T11:00:51.756Z,5.03
2022-12-17T11:03:50.897Z,5.78
2022-12-17T11:06:47.225Z,6.41
2022-12-17T11:10:03.664Z,7.46
2022-12-17T11:13:03.460Z,7.75
2022-12-17T11:16:23.683Z,9.24
2022-12-17T11:19:17.273Z,11.20
2022-12-17T11:22:06.288Z,12.00
2022-12-17T11:25:02.731Z,12.10
2022-12-17T11:28:00.102Z,10.95
2022-12-17T11:30:47.165Z,10.78
2022-12-17T11:33:43.716Z,10.84
2022-12-17T11:36:44.925Z,10.05
2022-12-17T11:40:02.546Z,11.43
2022-12-17T11:43:02.605Z,12.75
2022-12-17T11:45:56.133Z,12.34
2022-12-17T11:49:03.003Z,13.07
2022-12-17T11:52:11.364Z,13.92
2022-12-17T11:55:26.707Z,13.88
2022-12-17T11:58:33.678Z,14.64
2022-12-17T12:01:38.966Z,8.52
2022-12-17T12:04:46.810Z,9.93
2022-12-17T12:07:52.189Z,10.63
2022-12-17T12:10:49.670Z,11.24
2022-12-17T12:14:06.219Z,8.21
2022-12-17T12:17:10.249Z,6.58
2022-12-17T12:20:20.870Z,6.87
2022-12-17T12:23:44.007Z,9.86
2022-12-17T12:26:46.640Z,12.28
2022-12-17T12:29:59.232Z,12.40
2022-12-17T12:33:22.971Z,9.75
2022-12-17T12:36:11.490Z,9.90
2022-12-17T12:39:02.383Z,11.96
2022-12-17T12:42:13.726Z,13.76
2022-12-17T12:45:13.719Z,12.03
2022-12-17T12:48:19.630Z,9.98
2022-12-17T12:51:34.102Z,9.55
2022-12-17T12:54:39.908Z,8.91
2022-12-17T12:57:54.850Z,10.80
2022-12-17T13:00:43.194Z,11.25
2022-12-17T13:03:46.850Z,10.37
2022-12-17T13:06:43.668Z,9.39
2022-12-17T13:09:20.628Z,9.34
2022-12-17T13:12:04.186Z,9.65
2022-12-17T13:14:59.287Z,11.62
2022-12-17T13:17:59.097Z,12.25
2022-12-17T13:20:33.481Z,12.39
2022-12-17T13:23:30.046Z,9.14
2022-12-17T13:26:22.190Z,9.66
2022-12-17T13:29:29.694Z,11.04
2022-12-17T13:32:14.308Z,12.27
2022-12-17T13:35:17.886Z,12.69
2022-12-17T13:38:12.416Z,12.48
2022-12-17T13:41:08.109Z,11.71
2022-12-17T13:43:50.586Z,10.74
2022-12-17T13:46:23.713Z,9.28
2022-12-17T13:49:03.344Z,6.04
2022-12-17T13:51:33.442Z,4.84
2022-12-17T13:54:03.844Z,3.76
2022-12-17T13:56:37.430Z,4.25
2022-12-17T13:59:09.081Z,5.14
2022-12-17T14:01:49.293Z,4.53
2022-12-17T14:04:28.953Z,5.15
2022-12-17T14:07:00.260Z,5.38
2022-12-17T14:09:34.985Z,6.29
2022-12-17T14:12:23.884Z,7.42
2022-12-17T14:15:08.313Z,8.11
2022-12-17T14:17:44.585Z,8.00
2022-12-17T14:20:19.362Z,8.12
2022-12-17T14:22:53.876Z,7.01
2022-12-17T14:25:43.390Z,5.71
2022-12-17T14:28:31.095Z,5.16
2022-12-17T14:31:26.712Z,4.39
2022-12-17T14:34:11.180Z,3.43
2022-12-17T14:36:43.912Z,2.58
2022-12-17T14:39:25.888Z,1.96
2022-12-17T14:42:32.286Z,1.13
2022-12-17T14:45:07.669Z,0.46
2022-12-17T14:47:37.463Z,0.26
2022-12-17T14:50:13.183Z,-0.06
2022-12-17T14:52:46.681Z,-0.27
2022-12-17T14:55:58.465Z,-0.78
2022-12-17T14:58:27.620Z,-1.14
2022-12-17T15:01:12.996Z,-1.36
2022-12-17T15:03:47.939Z,-1.58
2022-12-17T15:06:19.839Z,-1.72
2022-12-17T15:08:49.028Z,-1.92
2022-12-17T15:11:20.304Z,-2.14
2022-12-17T15:13:52.831Z,-2.37
2022-12-17T15:16:22.903Z,-2.43
2022-12-17T15:18:49.716Z,-2.53
2022-12-17T15:21:18.457Z,-2.63
2022-12-17T15:23:47.055Z,-2.77
2022-12-17T15:26:15.146Z,-2.93
2022-12-17T15:28:42.867Z,-3.04
2022-12-17T15:31:12.542Z,-3.15
2022-12-17T15:33:40.298Z,-3.41
2022-12-17T15:36:08.009Z,-3.57
2022-12-17T15:38:35.032Z,-3.55
2022-12-17T15:41:30.686Z,-3.52
2022-12-17T15:43:57.430Z,-3.53
2022-12-17T15:46:24.299Z,-3.71
2022-12-17T15:48:51.315Z,-3.90
2022-12-17T15:51:20.911Z,-3.90
2022-12-17T15:53:48.266Z,-3.90
2022-12-17T15:56:27.263Z,-4.09
2022-12-17T15:58:57.341Z,-4.16
2022-12-17T16:01:24.837Z,-4.21
2022-12-17T16:03:55.110Z,-4.23
2022-12-17T16:06:22.077Z,-4.17
2022-12-17T16:08:48.892Z,-4.09
2022-12-17T16:11:16.113Z,-4.03
2022-12-17T16:13:43.051Z,-4.06
2022-12-17T16:16:10.218Z,-4.12
2022-12-17T16:18:38.518Z,-4.16
2022-12-17T16:21:08.301Z,-4.22
2022-12-17T16:23:36.142Z,-4.26
2022-12-17T16:26:05.376Z,-4.31
2022-12-17T16:28:32.740Z,-4.40
2022-12-17T16:31:09.363Z,-4.33
2022-12-17T16:33:39.794Z,-4.23
2022-12-17T16:36:09.386Z,-4.22
2022-12-17T16:38:36.729Z,-4.49
2022-12-17T16:41:03.982Z,-4.72
2022-12-17T16:43:34.202Z,-4.88
2022-12-17T16:46:01.475Z,-4.91
2022-12-17T16:48:28.293Z,-5.07
2022-12-17T16:50:55.083Z,-5.22
2022-12-17T16:53:22.313Z,-5.43
2022-12-17T16:55:49.715Z,-5.43
2022-12-17T16:58:17.904Z,-5.41
2022-12-17T17:00:46.159Z,-5.43
2022-12-17T17:03:13.149Z,-5.43
2022-12-17T17:05:40.551Z,-5.36
2022-12-17T17:08:07.564Z,-5.37
2022-12-17T17:10:36.899Z,-5.39
2022-12-17T17:13:04.157Z,-5.38
2022-12-17T17:15:31.096Z,-5.40
2022-12-17T17:18:01.784Z,-5.44
2022-12-17T17:20:32.242Z,-5.46
2022-12-17T17:22:59.618Z,-5.43
2022-12-17T17:25:43.945Z,-5.41
2022-12-17T17:28:13.541Z,-5.33
2022-12-17T17:30:40.286Z,-5.18
2022-12-17T17:33:07.056Z,-5.08
2022-12-17T17:35:33.807Z,-5.04
2022-12-17T17:38:00.894Z,-5.02
2022-12-17T17:40:27.649Z,-5.11
2022-12-17T17:42:54.482Z,-5.09
2022-12-17T17:45:21.318Z,-5.17
2022-12-17T17:47:48.064Z,-5.26
2022-12-17T17:50:15.930Z,-5.30
2022-12-17T17:52:42.689Z,-5.55
2022-12-17T17:55:09.582Z,-5.48
2022-12-17T17:57:36.320Z,-5.57
2022-12-17T18:00:04.029Z,-5.54
2022-12-17T18:02:31.081Z,-5.66
2022-12-17T18:05:00.921Z,-6.15
2022-12-17T18:07:28.257Z,-6.45
2022-12-17T18:09:56.215Z,-6.82
2022-12-17T18:12:41.849Z,-6.93
2022-12-17T18:15:14.861Z,-6.95
2022-12-17T18:17:49.291Z,-6.84
2022-12-17T18:20:16.569Z,-6.59
2022-12-17T18:22:45.854Z,-6.40
2022-12-17T18:25:13.112Z,-6.31
2022-12-17T18:27:39.958Z,-6.18
2022-12-17T18:30:07.481Z,-6.30
2022-12-17T18:32:34.390Z,-6.44
2022-12-17T18:35:01.312Z,-6.36
2022-12-17T18:37:28.208Z,-6.22
2022-12-17T18:39:55.064Z,-6.06
2022-12-17T18:42:40.106Z,-6.00
2022-12-17T18:45:07.698Z,-5.95
2022-12-17T18:47:34.438Z,-5.98
2022-12-17T18:50:01.275Z,-6.25
2022-12-17T18:52:28.081Z,-6.43
2022-12-17T18:54:54.929Z,-6.57
2022-12-17T18:57:21.835Z,-7.00
2022-12-17T18:59:49.289Z,-7.27
2022-12-17T19:02:16.329Z,-7.54
2022-12-17T19:04:43.254Z,-7.70
2022-12-17T19:07:10.657Z,-7.68
2022-12-17T19:09:39.411Z,-7.58
2022-12-17T19:12:08.914Z,-7.67
2022-12-17T19:14:36.837Z,-7.49
2022-12-17T19:17:05.758Z,-7.35
2022-12-17T19:19:33.582Z,-7.23
2022-12-17T19:22:00.692Z,-7.12
2022-12-17T19:24:27.859Z,-7.15
2022-12-17T19:26:55.040Z,-6.87
2022-12-17T19:29:22.120Z,-6.65
2022-12-17T19:31:49.870Z,-6.51
2022-12-17T19:34:18.861Z,-6.31
2022-12-17T19:36:47.201Z,-6.08
2022-12-17T19:39:17.929Z,-5.83
2022-12-17T19:41:46.215Z,-5.61
2022-12-17T19:44:16.168Z,-5.49
2022-12-17T19:46:44.766Z,-5.34
2022-12-17T19:49:14.790Z,-5.22
2022-12-17T19:51:44.396Z,-5.12
2022-12-17T19:54:15.532Z,-4.96
2022-12-17T19:56:44.757Z,-4.89
2022-12-17T19:59:12.180Z,-4.80
2022-12-17T20:01:48.453Z,-4.70
2022-12-17T20:04:16.547Z,-4.61
2022-12-17T20:06:44.548Z,-4.60
2022-12-17T20:09:12.586Z,-4.57
2022-12-17T20:11:39.470Z,-4.54
2022-12-17T20:14:16.175Z,-4.49
2022-12-17T20:16:47.061Z,-4.47
2022-12-17T20:19:21.385Z,-4.37
2022-12-17T20:21:48.777Z,-4.29
2022-12-17T20:24:17.322Z,-4.21
2022-12-17T20:26:46.149Z,-4.14
2022-12-17T20:29:13.091Z,-4.07
2022-12-17T20:31:42.361Z,-4.00
2022-12-17T20:34:15.418Z,-3.98
2022-12-17T20:36:43.914Z,-3.89
2022-12-17T20:39:12.627Z,-3.86
2022-12-17T20:41:40.244Z,-3.88
2022-12-17T20:44:11.390Z,-3.76
2022-12-17T20:46:38.191Z,-3.67
2022-12-17T20:49:05.918Z,-3.65
2022-12-17T20:51:33.220Z,-3.62
2022-12-17T20:54:01.778Z,-3.66
2022-12-17T20:56:33.895Z,-3.58
2022-12-17T20:59:06.639Z,-3.51
2022-12-17T21:01:36.114Z,-3.53
2022-12-17T21:04:04.040Z,-3.43
2022-12-17T21:06:40.366Z,-3.50
2022-12-17T21:09:07.816Z,-3.51
2022-12-17T21:11:36.348Z,-3.56
2022-12-17T21:14:12.576Z,-3.48
2022-12-17T21:16:40.840Z,-3.48
2022-12-17T21:19:10.003Z,-3.44
2022-12-17T21:21:38.558Z,-3.39
2022-12-17T21:24:06.661Z,-3.38
2022-12-17T21:26:37.189Z,-3.34
2022-12-17T21:29:06.466Z,-3.42
2022-12-17T21:31:40.683Z,-3.52
2022-12-17T21:34:12.390Z,-3.60
2022-12-17T21:36:39.626Z,-3.49
2022-12-17T21:39:09.349Z,-3.51
2022-12-17T21:41:42.937Z,-3.37
2022-12-17T21:44:15.161Z,-3.33
2022-12-17T21:46:43.027Z,-3.52
2022-12-17T21:49:10.450Z,-3.22
2022-12-17T21:51:37.499Z,-3.39
2022-12-17T21:54:08.137Z,-3.33
2022-12-17T21:56:36.370Z,-3.12
2022-12-17T21:59:03.661Z,-2.69
2022-12-17T22:01:33.666Z,-3.12
2022-12-17T22:04:03.313Z,-3.15
2022-12-17T22:06:34.227Z,-3.00
2022-12-17T22:09:22.742Z,-3.05
2022-12-17T22:12:14.217Z,-3.09
2022-12-17T22:14:41.014Z,-2.92
2022-12-17T22:17:07.819Z,-3.00
2022-12-17T22:19:34.578Z,-3.19
2022-12-17T22:22:01.390Z,-3.11
2022-12-17T22:24:28.184Z,-3.35
2022-12-17T22:27:01.654Z,-3.18
2022-12-17T22:29:47.349Z,-3.09
2022-12-17T22:32:33.197Z,-2.99
2022-12-17T22:36:28.108Z,-2.96
2022-12-17T22:41:56.332Z,-2.85
2022-12-17T22:44:34.120Z,-3.07
2022-12-17T22:44:45.479Z,-2.91
2022-12-17T22:46:19.640Z,-2.82
2022-12-17T22:48:46.928Z,-2.72
2022-12-17T22:51:20.697Z,-2.76
2022-12-17T22:53:53.555Z,-2.78
2022-12-17T22:56:34.630Z,-2.78
2022-12-17T22:59:16.742Z,-2.66
2022-12-17T23:01:43.811Z,-2.66
2022-12-17T23:04:13.714Z,-2.75
2022-12-17T23:06:41.873Z,-2.71
2022-12-17T23:09:08.648Z,-2.78
2022-12-17T23:11:35.498Z,-2.91
2022-12-17T23:14:02.280Z,-2.70
2022-12-17T23:16:29.207Z,-2.63
2022-12-17T23:18:56.118Z,-2.62
2022-12-17T23:21:25.624Z,-2.56
2022-12-17T23:23:55.306Z,-2.44
2022-12-17T23:26:29.310Z,-2.60
2022-12-17T23:28:59.094Z,-2.46
2022-12-17T23:31:30.931Z,-2.50
2022-12-17T23:33:57.826Z,-2.50
2022-12-17T23:36:26.254Z,-2.61
2022-12-17T23:38:55.580Z,-2.64
2022-12-17T23:41:26.911Z,-2.55
2022-12-17T23:43:54.663Z,-2.55
2022-12-17T23:46:23.689Z,-2.26
2022-12-17T23:48:51.372Z,-2.22
2022-12-17T23:51:21.681Z,-2.51
2022-12-17T23:53:49.089Z,-2.42
2022-12-17T23:56:18.609Z,-2.44
2022-12-17T23:58:46.721Z,-2.51
